Hoppa till innehåll

METAR väder och rapporter - ESKN

Nedan listas information från vald flygplats. Andra METARs finns längre ned på sidan. Kontakta oss om någon saknas eller skriv in egen ICAO-kod.

Coded METAR: 2022/12/01 12:20 ESKN 011220Z 05005KT 3300 -RA BR FEW003 SCT009 BKN012 02/02 Q1034

Weather Report @ ESKN

Issued: 1st Dec 2022 at 13:20 CET

Wind: light breeze from the Northeast (050 degrees) at 5 knots (6 mph, 9 kph, 3 mps, Force 2)
Visibility: 3300 metres
Weather: light rain
Weather: mist
Cloud: a few clouds at 300 feet
Cloud: scattered at 900 feet
Cloud: broken at 1200 feet
Temperature: 36F / 2C
Dewpoint: 36F / 2C
Humidity: 100%
Pressure: 1034 hPa

Coded TAF: 2022/12/01 12:09 TAF TAF ESKN 011130Z 0112/0212 04004KT 9999 SCT007 BKN015 PROB40 0112/0123 3000 -RADZ BR BKN008 PROB40 0123/0209 4000 BR BKN004 PROB40 0209/0212 BKN008

Weather Forecast @ ESKN

Issued: 1st Dec 2022 at 13:09 CET

Valid : 1st Dec 13:00 until 2nd Dec 13:00 CET

13:00 CET
Wind: light breeze from the Northeast (040 degrees) at 4 knots (5 mph, 7 kph, 2 mps, Force 2)
Visibility: 10km or more
Cloud: scattered at 700 feet
Cloud: broken at 1500 feet

13:00 CET to 00:00 CET
there is a 40% chance of:

Visibility: 3000 metres
Weather: light rain and drizzle
Weather: mist
Cloud: broken at 800 feet

00:00 CET to 10:00 CET
there is a 40% chance of:

Visibility: 4000 metres
Weather: mist
Cloud: broken at 400 feet

10:00 CET to 13:00 CET
there is a 40% chance of:

Cloud: broken at 800 feet

Internet delivery of weather data is not secure or reliable enough for operational purposes.

NEVER RELY ON THE OUTPUT OF THIS SCRIPT TO MAKE DECISIONS ABOUT ANYTHING IN WHICH THE WEATHER FORECAST AND ITS INTERPRETATION COULD BE AN ISSUE OF SAFETY.

Andra intressanta METARs

Klicka på önskad rubrik nedan för att visa nuvarande väder för den platsen.

Avstånd från stationen: NO 27kmESGG - Göteborg (Landvetter)
Uppdaterad: 2022-12-01 13:20
 Vind från NO
Vind: NO 15 km/h
Temperatur: 2°C
Vindavkylning: -2°C
Daggpunkt: 1°C
Luftfuktighet: 93%
Barometer: 1032 hPa
Moln: Övervägande molnigt
Sikt: 10 km
Molninformation: Övervägande molnigt 244 m
2022/12/01 12:20 ESGG 011220Z 04008KT 9999 BKN008 02/01 Q1032
Övervägande molnigt
Övervägande molnigt
  Visa detaljer för Göteborg (Landvetter)
Avstånd från stationen: N 28kmESGP - Göteborg (Säve)
Uppdaterad: 2022-12-01 13:20
 Vind från NNO
Vind: NNO 7 km/h
Temperatur: 3°C
Vindavkylning: 1°C
Daggpunkt: 1°C
Luftfuktighet: 87%
Barometer: 1033 hPa
Moln: Övervägande molnigt
Sikt: 10 km
Molninformation: Övervägande molnigt 274 m
2022/12/01 12:20 ESGP 011220Z 03004KT 010V070 9999 BKN009 03/01 Q1033
Övervägande molnigt
Övervägande molnigt
  Visa detaljer för Göteborg (Säve)
Avstånd från stationen: NO 419kmESSA - Stockholm (Arlanda)
Uppdaterad: 2022-12-01 13:20
 Vind från ONO
Vind: ONO 9 km/h
Temperatur: 2°C
Vindavkylning: -1°C
Daggpunkt: 1°C
Luftfuktighet: 93%
Barometer: 1035 hPa
Summering: Lätt duggregn
Moln: Övervägande molnigt
Sikt: 10 km
Molninformation: Övervägande molnigt 1128 m
2022/12/01 12:20 ESSA 011220Z 06005KT 030V090 9999 -DZ BKN037 02/01 Q1035 TEMPO 4000 DZ BKN010
Lätt duggregn, Övervägande molnigt
Lätt duggregn
Övervägande molnigt
  Visa detaljer för Stockholm (Arlanda)
Avstånd från stationen: ONO 404kmESSB - Stockholm (Bromma)
Uppdaterad: 2022-12-01 13:20
 Vind från NO
Vind: NO 6 km/h
Temperatur: 3°C
Daggpunkt: 2°C
Luftfuktighet: 93%
Barometer: 1035 hPa
Moln: Övervägande molnigt
Sikt: 10 km
Molninformation: Övervägande molnigt 335 m
2022/12/01 12:20 ESSB 011220Z 04003KT 9999 BKN011 03/02 Q1035
Övervägande molnigt
Övervägande molnigt
  Visa detaljer för Stockholm (Bromma)
Avstånd från stationen: ONO 323kmESKN - Stockholm (Skavsta)
Uppdaterad: 2022-12-01 13:20
 Vind från NO
Vind: NO 9 km/h
Temperatur: 2°C
Vindavkylning: -1°C
Daggpunkt: 2°C
Luftfuktighet: 100%
Barometer: 1034 hPa
Summering: Lätt regn, Dimmigt
Moln: Övervägande molnigt
Sikt: 3 km
Molninformation: Några få moln 91 m
Delvis molnigt 274 m
Övervägande molnigt 366 m
2022/12/01 12:20 ESKN 011220Z 05005KT 3300 -RA BR FEW003 SCT009 BKN012 02/02 Q1034
Lätt regn, Dimmigt, Övervägande molnigt
Lätt regn
Dimmigt
Övervägande molnigt
  Visa detaljer för Stockholm (Skavsta)
Avstånd från stationen: SSO 238kmESMS - Malmö flygplats (Sturup)
Uppdaterad: 2022-12-01 13:20
 Vind från NNO
Vind: NNO 7 km/h
Temperatur: 4°C
Vindavkylning: 2°C
Daggpunkt: 3°C
Luftfuktighet: 93%
Barometer: 1030 hPa
Moln: Genommulet
Sikt: 7 km
Molninformation: Några få moln 488 m
Genommulet 823 m
2022/12/01 12:20 ESMS 011220Z 03004KT 7000 FEW016 OVC027 04/03 Q1030
Genommulet
Genommulet
  Visa detaljer för Malmö flygplats (Sturup)
Avstånd från stationen: O 382kmESSV - Visby flygplats
Uppdaterad: 2022-12-01 13:20
 Vind från O
Vind: O 9 km/h
Temperatur: 4°C
Vindavkylning: 2°C
Daggpunkt: 2°C
Luftfuktighet: 87%
Barometer: 1033 hPa
Summering: Klart
Sikt: mer än 10 km
2022/12/01 12:20 ESSV 011220Z 08005KT CAVOK 04/02 Q1033
Klart
Klart
  Visa detaljer för Visby flygplats
Avstånd från stationen: NNO 92kmESGT - Trollhättan
Uppdaterad: 2022-12-01 13:20
 Vind från NNO
Vind: NNO 11 km/h
Temperatur: 3°C
Vindavkylning: 0°C
Daggpunkt: 1°C
Luftfuktighet: 87%
Barometer: 1034 hPa
Moln: Övervägande molnigt
Sikt: 10 km
Molninformation: Övervägande molnigt 305 m
2022/12/01 12:20 ESGT 011220Z 03006KT 9999 BKN010 03/01 Q1034
Övervägande molnigt
Övervägande molnigt
  Visa detaljer för Trollhättan
Avstånd från stationen: ONO 129kmESGJ - Jönköpings flygplats
Uppdaterad: 2022-12-01 13:20
 Vind från NO
Vind: NO 4 km/h
Temperatur: 2°C
Daggpunkt: 2°C
Luftfuktighet: 100%
Barometer: 1032 hPa
Moln: Övervägande molnigt
Sikt: 10 km
Molninformation: Övervägande molnigt 152 m
2022/12/01 12:20 ESGJ 011220Z 05002KT 9999 BKN005 02/02 Q1032
Övervägande molnigt
Övervägande molnigt
  Visa detaljer för Jönköpings flygplats
Avstånd från stationen: NNO 229kmESOK - Karlstad
Uppdaterad: 2022-12-01 13:20
 Vind från NNO
Vind: NNO 7 km/h
Temperatur: 1°C
Vindavkylning: -2°C
Daggpunkt: 1°C
Luftfuktighet: 100%
Barometer: 1034 hPa
Moln: Genommulet
Sikt: 10 km
Molninformation: Några få moln 91 m
Genommulet 427 m
2022/12/01 12:20 ESOK 011220Z 03004KT 9999 FEW003 OVC014 01/01 Q1034
Genommulet
Genommulet
  Visa detaljer för Karlstad
Avstånd från stationen: N 643kmESNZ - Östersund (Frösön)
Uppdaterad: 2022-12-01 13:20
 Vind från calm
Vind: Vindstilla
Temperatur: -3°C
Daggpunkt: -3°C
Luftfuktighet: 100%
Barometer: 1035 hPa
Moln: Genommulet
Sikt: 10 km
Molninformation: Genommulet 91 m
2022/12/01 12:20 ESNZ 011220Z AUTO 00000KT 9999 OVC003/// M03/M03 Q1035
Genommulet
Genommulet
  Visa detaljer för Östersund (Frösön)
Avstånd från stationen: SSO 216kmEKCH - Köpenhamn (Kastrup)
Uppdaterad: 2022-12-01 13:20
 Vind från ONO
Vind: ONO 15 km/h
Temperatur: 5°C
Vindavkylning: 2°C
Daggpunkt: 3°C
Luftfuktighet: 87%
Barometer: 1031 hPa
Moln: Övervägande molnigt
Sikt: 10 km
Molninformation: Delvis molnigt 244 m
Övervägande molnigt 914 m
2022/12/01 12:20 EKCH 011220Z 06008KT 9999 SCT008 BKN030 05/03 Q1031 NOSIG
Övervägande molnigt
Övervägande molnigt
  Visa detaljer för Köpenhamn (Kastrup)
Avstånd från stationen: SV 263kmEKBI - Billund Airport
Uppdaterad: 2022-12-01 13:20
 Vind från NNO
Vind: NNO 11 km/h
Temperatur: 4°C
Vindavkylning: 1°C
Daggpunkt: 3°C
Luftfuktighet: 93%
Barometer: 1031 hPa
Moln: Genommulet
Sikt: 10 km
Molninformation: Övervägande molnigt 823 m
Genommulet 2256 m
2022/12/01 12:20 EKBI 011220Z AUTO 03006KT 9999 BKN027/// OVC074/// 04/03 Q1031
Genommulet
Genommulet
  Visa detaljer för Billund Airport
Avstånd från stationen: N 302kmENGM - Oslo (Gardermoen)
Uppdaterad: 2022-12-01 13:20
 Vind från NNO
Vind: NNO 11 km/h
Temperatur: -1°C
Vindavkylning: -5°C
Daggpunkt: -2°C
Luftfuktighet: 93%
Barometer: 1035 hPa
Summering: Light Snow
Moln: Övervägande molnigt
Sikt: 8 km
Molninformation: Delvis molnigt 274 m
Övervägande molnigt 396 m
2022/12/01 12:20 ENGM 011220Z 03006KT 8000 -SN SCT009 BKN013 M01/M02 Q1035 NOSIG
Light snow, Övervägande molnigt
Light snow
Övervägande molnigt
  Visa detaljer för Oslo (Gardermoen)
Avstånd från stationen: NO 540kmEFMA - Mariehamn / Åland
Uppdaterad: 2022-12-01 13:20
 Vind från O
Vind: O 9 km/h
Temperatur: 3°C
Vindavkylning: 0°C
Daggpunkt: 1°C
Luftfuktighet: 87%
Barometer: 1037 hPa
Moln: Övervägande molnigt
Sikt: 10 km
Molninformation: Övervägande molnigt 579 m
2022/12/01 12:20 EFMA 011220Z AUTO 10005KT 9999 BKN019 03/01 Q1037
Övervägande molnigt
Övervägande molnigt
  Visa detaljer för Mariehamn / Åland
Avstånd från stationen: S 558kmEDDT - Berlin (Tegel), Germany
Uppdaterad: 2020-11-09 07:50
Ej aktuell
 Vind från O
Vind: O 11 km/h
Temperatur: 6°C
Vindavkylning: 4°C
Daggpunkt: 5°C
Luftfuktighet: 93%
Barometer: 1027 hPa
Summering: Dimmigt
Moln: Genommulet
Sikt: 3 km
Molninformation: Genommulet 91 m
2020/11/09 06:50 EDDT 090650Z 09006KT 050V120 3000 BR OVC003 06/05 Q1027
Dimmigt, Genommulet
Dimmigt
Genommulet
  Visa detaljer för Berlin (Tegel), Germany
Avstånd från stationen: SV 737kmEHAM - Amsterdam (Schiphol)
Uppdaterad: 2022-12-01 13:25
 Vind från NO
Vind: NO 13 km/h
Temperatur: 8°C
Vindavkylning: 6°C
Daggpunkt: 3°C
Luftfuktighet: 71%
Barometer: 1028 hPa
Moln: Några få moln
Sikt: 10 km
Molninformation: Några få moln 579 m
2022/12/01 12:25 EHAM 011225Z 04007KT 010V070 9999 FEW019 08/03 Q1028 NOSIG
Några få moln
Några få moln
  Visa detaljer för Amsterdam (Schiphol)
Avstånd från stationen: ONO 808kmEFHK - Helsingfors (Vantaa)
Uppdaterad: 2022-12-01 13:20
 Vind från ONO
Vind: ONO 15 km/h
Temperatur: -1°C
Vindavkylning: -6°C
Daggpunkt: -2°C
Luftfuktighet: 93%
Barometer: 1038 hPa
Moln: Övervägande molnigt
Sikt: 10 km
Molninformation: Några få moln 213 m
Övervägande molnigt 305 m
2022/12/01 12:20 EFHK 011220Z 06008KT 9999 FEW007 BKN010 M01/M02 Q1038 NOSIG
Övervägande molnigt
Övervägande molnigt
  Visa detaljer för Helsingfors (Vantaa)
Avstånd från stationen: SSV 537kmEDDW - Bremen
Uppdaterad: 2022-12-01 13:20
 Vind från O
Vind: O 13 km/h
Temperatur: 4°C
Vindavkylning: 1°C
Daggpunkt: 2°C
Luftfuktighet: 87%
Barometer: 1028 hPa
Moln: Genommulet
Sikt: 9 km
Molninformation: Övervägande molnigt 427 m
Genommulet 1280 m
2022/12/01 12:20 EDDW 011220Z AUTO 08007KT 9000 BKN014 OVC042 04/02 Q1028 TEMPO 4000 BR OVC009
Genommulet
Genommulet
  Visa detaljer för Bremen
Avstånd från stationen: SSV 861kmEDDF - Frankfurt am Main
Uppdaterad: 2022-12-01 13:20
 Vind från N
Vind: N 13 km/h
Temperatur: 5°C
Vindavkylning: 2°C
Daggpunkt: 1°C
Luftfuktighet: 76%
Barometer: 1024 hPa
Moln: Genommulet
Sikt: 10 km
Molninformation: Några få moln 579 m
Genommulet 792 m
2022/12/01 12:20 EDDF 011220Z AUTO 01007KT 9999 FEW019 OVC026 05/01 Q1024 NOSIG
Genommulet
Genommulet
  Visa detaljer för Frankfurt am Main
Avstånd från stationen: SV 880kmEBBR - Bryssel international
Uppdaterad: 2022-12-01 13:20
 Vind från NNO
Vind: NNO 11 km/h
Temperatur: 6°C
Vindavkylning: 4°C
Daggpunkt: 4°C
Luftfuktighet: 87%
Barometer: 1027 hPa
Moln: Övervägande molnigt
Sikt: 10 km
Molninformation: Delvis molnigt 396 m
Övervägande molnigt 732 m
2022/12/01 12:20 EBBR 011220Z 02006KT 9999 SCT013 BKN024 06/04 Q1027 NOSIG
Övervägande molnigt
Övervägande molnigt
  Visa detaljer för Bryssel international
Avstånd från stationen: SV 738kmEHAM - Amsterdam (Schiphol)
Uppdaterad: 2022-12-01 13:25
 Vind från NO
Vind: NO 13 km/h
Temperatur: 8°C
Vindavkylning: 6°C
Daggpunkt: 3°C
Luftfuktighet: 71%
Barometer: 1028 hPa
Moln: Några få moln
Sikt: 10 km
Molninformation: Några få moln 579 m
2022/12/01 12:25 EHAM 011225Z 04007KT 010V070 9999 FEW019 08/03 Q1028 NOSIG
Några få moln
Några få moln
  Visa detaljer för Amsterdam (Schiphol)
Avstånd från stationen: SV 1044kmEGLL - London (Heathrow)
Uppdaterad: 2022-12-01 13:20
 Vind från VNV
Vind: VNV 7 km/h
Temperatur: 6°C
Vindavkylning: 4°C
Daggpunkt: 5°C
Luftfuktighet: 93%
Barometer: 1029 hPa
Summering: Disigt
Moln: Övervägande molnigt
Sikt: 4 km
Molninformation: Delvis molnigt 61 m
Övervägande molnigt 183 m
2022/12/01 12:20 EGLL 011220Z AUTO 30004KT 3700 HZ SCT002 BKN006 06/05 Q1029 TEMPO 1200 BKN002
Disigt, Övervägande molnigt
Disigt
Övervägande molnigt
  Visa detaljer för London (Heathrow)
Avstånd från stationen: SV 1132kmLFPG - Paris (Charles de Gaulle)
Uppdaterad: 2022-12-01 13:30
 Vind från N
Vind: N 22 km/h
Temperatur: 6°C
Vindavkylning: 2°C
Daggpunkt: 4°C
Luftfuktighet: 87%
Barometer: 1025 hPa
Moln: Övervägande molnigt
Sikt: 8 km
Molninformation: Övervägande molnigt 213 m
Övervägande molnigt 1463 m
2022/12/01 12:30 LFPG 011230Z 01012KT 8000 BKN007 BKN048 06/04 Q1025 TEMPO BKN012
Övervägande molnigt
Övervägande molnigt
  Visa detaljer för Paris (Charles de Gaulle)
Avstånd från stationen: SSV 1142kmLSZH - Zürich Airport
Uppdaterad: 2022-12-01 13:20
 Vind från N
Vind: N 9 km/h
Temperatur: 3°C
Vindavkylning: 0°C
Daggpunkt: 0°C
Luftfuktighet: 81%
Barometer: 1021 hPa
Moln: Övervägande molnigt
Sikt: 10 km
Molninformation: Delvis molnigt 488 m
Övervägande molnigt 610 m
2022/12/01 12:20 LSZH 011220Z 01005KT 9999 SCT016 BKN020 03/M00 Q1021 NOSIG
Övervägande molnigt
Övervägande molnigt
  Visa detaljer för Zürich Airport
Avstånd från stationen: S 1749kmLIRF - Rome Airport (Fiumicino - Leonardo da Vinci)
Uppdaterad: 2022-12-01 13:20
 Vind från OSO
Vind: OSO 6 km/h
Temperatur: 14°C
Daggpunkt: 6°C
Luftfuktighet: 59%
Barometer: 1014 hPa
Summering: Klart
Sikt: mer än 10 km
2022/12/01 12:20 LIRF 011220Z 11003KT 040V160 CAVOK 14/06 Q1014 NOSIG
Klart
Klart
  Visa detaljer för Rome Airport (Fiumicino - Leonardo da Vinci)
Avstånd från stationen: SO 2679kmLTAI - Antalya
Uppdaterad: 2022-12-01 13:20
 Vind från NNO
Vind: NNO 11 km/h
Temperatur: 17°C
Daggpunkt: 15°C
Luftfuktighet: 88%
Barometer: 1018 hPa
Moln: Övervägande molnigt
Sikt: 10 km
Molninformation: Några få moln 610 m
Övervägande molnigt 914 m
2022/12/01 12:20 LTAI 011220Z 03006KT 9999 FEW020CB BKN030 17/15 Q1018 BECMG TL1320 16010KT
Övervägande molnigt
Övervägande molnigt
  Visa detaljer för Antalya
Avstånd från stationen: VSV 6074kmKJFK - New Your (JFK)
Uppdaterad: 2022-12-01 12:51
 Vind från V
Vind: V 24 km/h
Vindby: 43 km/h
Temperatur: 3°C
Vindavkylning: -2°C
Daggpunkt: -8°C
Luftfuktighet: 45%
Barometer: 1020.7 hPa
Moln: Några få moln
Sikt: 16 km
Molninformation: Några få moln 1676 m
2022/12/01 11:51 KJFK 011151Z 28013G23KT 10SM FEW055 03/M08 A3014 RMK AO2 SLP206 70034 T00281078 10044 20028 51039
Några få moln
Några få moln
  Visa detaljer för New Your (JFK)
Avstånd från stationen: VSV 8848kmKLAX - Los Angeles International Airport
Uppdaterad: 2022-12-01 12:53
 Vind från O
Vind: O 9 km/h
Temperatur: 13°C
Daggpunkt: 6°C
Luftfuktighet: 63%
Barometer: 1015.6 hPa
Moln: Övervägande molnigt
Sikt: 16 km
Molninformation: Några få moln 762 m
Övervägande molnigt 1280 m
2022/12/01 11:53 KLAX 011153Z 09005KT 10SM FEW025 BKN042 13/06 A2999 RMK AO2 SLP155 T01330056 10139 20133 56002 $
Övervägande molnigt
Övervägande molnigt
  Visa detaljer för Los Angeles International Airport
Avstånd från stationen: SO 4968kmOMDB - Dubai International Airport
Uppdaterad: 2022-12-01 13:00
 Vind från NV
Vind: NV 15 km/h
Temperatur: 29°C
Värmeindex: 29°C
Daggpunkt: 18°C
Luftfuktighet: 51%
Barometer: 1014 hPa
Summering: Klart
Sikt: mer än 10 km
2022/12/01 12:00 OMDB 011200Z 31008KT 280V350 CAVOK 29/18 Q1014 NOSIG
Klart
Klart
  Visa detaljer för Dubai International Airport
Avstånd från stationen: OSO 8570kmRJTT - Tokyo International Airport
Uppdaterad: 2022-12-01 13:00
 Vind från N
Vind: N 6 km/h
Temperatur: 10°C
Daggpunkt: 7°C
Luftfuktighet: 82%
Barometer: 1017 hPa
Moln: Övervägande molnigt
Sikt: 10 km
Molninformation: Några få moln 457 m
Delvis molnigt 762 m
Övervägande molnigt 1067 m
2022/12/01 12:00 RJTT 011200Z 01003KT 340V070 9999 FEW015 SCT025 BKN035 10/07 Q1017 NOSIG
Övervägande molnigt
Övervägande molnigt
  Visa detaljer för Tokyo International Airport
Avstånd från stationen: OSO 7125kmZBAA - Peking (Beijing Capital)
Uppdaterad: 2022-12-01 13:30
 Vind från SSV
Vind: SSV 14 km/h
Temperatur: -2°C
Vindavkylning: -7°C
Daggpunkt: -19°C
Luftfuktighet: 26%
Barometer: 1032 hPa
Summering: Klart
Sikt: mer än 10 km
2022/12/01 12:30 ZBAA 011230Z 21004MPS CAVOK M02/M19 Q1032 NOSIG
Klart
Klart
  Visa detaljer för Peking (Beijing Capital)
VÄDER KURIOSA -  AstronomyOne day on Jupiter is only 9 hours and 55 minutes.